Decoded Metar for LDRI (RIJEKA in CROATIA) (IATA:RJK) | Meteo·Mobile Aviation Weather
aviador You're here:

LDRI Decoded Metar

RIJEKA in CROATIA
Report Time2018-11-19 04:30:00
UTC Time2018-11-19 04:44:11
Flight Rules vfr VFR
WindVRB at 01 kt
Visibility9999 m
Phenomena:N/A
Clouds:Few 033 Hf
Expected CloudBase > 3,200 ft AGL from Temp-Dew spread
CeilingNone
Temp05°C (ISA -9)
Dew Point-3°C (57% RH)
AAT2.3°C
QNH1011 hPa
Density Alt-725 ft
Elevation279 ft
Report Wrong Elevation
Raw Report
LDRI 190430Z VRB01KT 9999 FEW033 05/M03 Q1011=

Extra information for LDRI:More info

Metar Taf Metar & Taf Last 4 Metars F.Rules Stats Wind Profile Meteogram Temp Stats Airport Information Weather charts Add Link Nearby VenuesMetar ALERT Operation Metar Decoded Social comments